sensor_id;sensor_type;location;lat;lon;timestamp;P1;durP1;ratioP1;P2;durP2;ratioP2
10092;SDS011;5085;48.092;11.484;2022-12-01T00:00:43;25.08;;;9.80;;
10092;SDS011;5085;48.092;11.484;2022-12-01T00:03:10;20.90;;;10.57;;
10092;SDS011;5085;48.092;11.484;2022-12-01T00:05:36;21.98;;;10.05;;
10092;SDS011;5085;48.092;11.484;2022-12-01T00:08:02;23.60;;;10.18;;
10092;SDS011;5085;48.092;11.484;2022-12-01T00:10:29;24.38;;;10.35;;
10092;SDS011;5085;48.092;11.484;2022-12-01T00:12:58;31.20;;;10.02;;
10092;SDS011;5085;48.092;11.484;2022-12-01T00:15:27;22.95;;;10.73;;
10092;SDS011;5085;48.092;11.484;2022-12-01T00:17:59;26.92;;;9.63;;
10092;SDS011;5085;48.092;11.484;2022-12-01T00:20:25;25.50;;;8.75;;
10092;SDS011;5085;48.092;11.484;2022-12-01T00:22:52;21.90;;;11.00;;
10092;SDS011;5085;48.092;11.484;2022-12-01T00:25:18;27.17;;;10.55;;
10092;SDS011;5085;48.092;11.484;2022-12-01T00:27:49;23.65;;;10.93;;
10092;SDS011;5085;48.092;11.484;2022-12-01T00:30:17;28.05;;;11.55;;
10092;SDS011;5085;48.092;11.484;2022-12-01T00:32:44;28.05;;;11.10;;
10092;SDS011;5085;48.092;11.484;2022-12-01T00:35:10;27.60;;;10.63;;
10092;SDS011;5085;48.092;11.484;2022-12-01T00:37:36;26.80;;;10.70;;
10092;SDS011;5085;48.092;11.484;2022-12-01T00:40:03;31.42;;;11.82;;
10092;SDS011;5085;48.092;11.484;2022-12-01T00:42:30;26.73;;;10.32;;
10092;SDS011;5085;48.092;11.484;2022-12-01T00:44:56;27.55;;;10.60;;
10092;SDS011;5085;48.092;11.484;2022-12-01T00:47:22;25.75;;;10.63;;
10092;SDS011;5085;48.092;11.484;2022-12-01T00:49:48;29.45;;;10.65;;
10092;SDS011;5085;48.092;11.484;2022-12-01T00:52:17;26.65;;;11.00;;
10092;SDS011;5085;48.092;11.484;2022-12-01T00:54:44;25.45;;;10.20;;
10092;SDS011;5085;48.092;11.484;2022-12-01T00:57:10;22.40;;;10.77;;
10092;SDS011;5085;48.092;11.484;2022-12-01T00:59:36;32.90;;;13.23;;
10092;SDS011;5085;48.092;11.484;2022-12-01T01:02:03;25.60;;;10.88;;
10092;SDS011;5085;48.092;11.484;2022-12-01T01:04:30;25.10;;;11.27;;
10092;SDS011;5085;48.092;11.484;2022-12-01T01:06:57;25.85;;;10.50;;
10092;SDS011;5085;48.092;11.484;2022-12-01T01:09:26;25.58;;;10.38;;
10092;SDS011;5085;48.092;11.484;2022-12-01T01:11:52;26.25;;;10.98;;
10092;SDS011;5085;48.092;11.484;2022-12-01T01:14:19;23.35;;;9.88;;
10092;SDS011;5085;48.092;11.484;2022-12-01T01:16:46;20.67;;;9.10;;
10092;SDS011;5085;48.092;11.484;2022-12-01T01:19:12;23.65;;;9.15;;
10092;SDS011;5085;48.092;11.484;2022-12-01T01:21:38;21.75;;;9.15;;
10092;SDS011;5085;48.092;11.484;2022-12-01T01:24:05;28.90;;;12.13;;
10092;SDS011;5085;48.092;11.484;2022-12-01T01:26:31;24.02;;;9.98;;
10092;SDS011;5085;48.092;11.484;2022-12-01T01:28:58;26.90;;;10.60;;
10092;SDS011;5085;48.092;11.484;2022-12-01T01:31:27;22.48;;;9.88;;
10092;SDS011;5085;48.092;11.484;2022-12-01T01:33:55;25.35;;;11.15;;
10092;SDS011;5085;48.092;11.484;2022-12-01T01:36:22;15.57;;;7.40;;
10092;SDS011;5085;48.092;11.484;2022-12-01T01:38:49;25.85;;;10.27;;
10092;SDS011;5085;48.092;11.484;2022-12-01T01:41:20;24.55;;;10.52;;
10092;SDS011;5085;48.092;11.484;2022-12-01T01:46:27;22.50;;;9.63;;
10092;SDS011;5085;48.092;11.484;2022-12-01T01:54:22;20.75;;;9.07;;
10092;SDS011;5085;48.092;11.484;2022-12-01T01:56:53;24.20;;;9.43;;
10092;SDS011;5085;48.092;11.484;2022-12-01T01:59:23;24.02;;;10.38;;
10092;SDS011;5085;48.092;11.484;2022-12-01T02:01:59;19.48;;;8.90;;
10092;SDS011;5085;48.092;11.484;2022-12-01T02:04:31;19.38;;;8.23;;
10092;SDS011;5085;48.092;11.484;2022-12-01T02:06:59;21.77;;;8.60;;
10092;SDS011;5085;48.092;11.484;2022-12-01T02:09:25;22.80;;;8.98;;
10092;SDS011;5085;48.092;11.484;2022-12-01T02:12:11;22.90;;;9.43;;
10092;SDS011;5085;48.092;11.484;2022-12-01T02:17:46;24.48;;;9.52;;
10092;SDS011;5085;48.092;11.484;2022-12-01T02:23:10;18.60;;;9.27;;
10092;SDS011;5085;48.092;11.484;2022-12-01T02:34:43;25.20;;;8.48;;
10092;SDS011;5085;48.092;11.484;2022-12-01T02:37:27;22.45;;;9.43;;
10092;SDS011;5085;48.092;11.484;2022-12-01T02:40:05;22.98;;;8.10;;
10092;SDS011;5085;48.092;11.484;2022-12-01T02:48:28;22.95;;;9.50;;
10092;SDS011;5085;48.092;11.484;2022-12-01T02:50:58;21.85;;;8.60;;
10092;SDS011;5085;48.092;11.484;2022-12-01T02:53:37;25.40;;;10.52;;
10092;SDS011;5085;48.092;11.484;2022-12-01T02:56:05;23.92;;;9.38;;
10092;SDS011;5085;48.092;11.484;2022-12-01T02:58:34;26.27;;;10.23;;
10092;SDS011;5085;48.092;11.484;2022-12-01T03:01:05;26.40;;;9.35;;
10092;SDS011;5085;48.092;11.484;2022-12-01T03:03:59;28.17;;;8.55;;
10092;SDS011;5085;48.092;11.484;2022-12-01T03:06:47;25.20;;;10.77;;
10092;SDS011;5085;48.092;11.484;2022-12-01T03:17:48;23.33;;;8.82;;
10092;SDS011;5085;48.092;11.484;2022-12-01T03:23:14;30.77;;;12.90;;
10092;SDS011;5085;48.092;11.484;2022-12-01T03:25:45;25.33;;;9.63;;
10092;SDS011;5085;48.092;11.484;2022-12-01T03:28:16;23.67;;;9.73;;
10092;SDS011;5085;48.092;11.484;2022-12-01T03:30:45;24.20;;;10.77;;
10092;SDS011;5085;48.092;11.484;2022-12-01T03:33:20;24.55;;;10.43;;
10092;SDS011;5085;48.092;11.484;2022-12-01T03:35:55;23.38;;;9.15;;
10092;SDS011;5085;48.092;11.484;2022-12-01T03:38:26;26.40;;;10.30;;
10092;SDS011;5085;48.092;11.484;2022-12-01T03:40:55;33.38;;;12.00;;
10092;SDS011;5085;48.092;11.484;2022-12-01T03:43:33;31.35;;;12.07;;
10092;SDS011;5085;48.092;11.484;2022-12-01T03:48:48;27.98;;;11.25;;
10092;SDS011;5085;48.092;11.484;2022-12-01T03:51:23;23.05;;;10.32;;
10092;SDS011;5085;48.092;11.484;2022-12-01T03:53:59;27.80;;;11.13;;
10092;SDS011;5085;48.092;11.484;2022-12-01T03:56:35;27.63;;;11.13;;
10092;SDS011;5085;48.092;11.484;2022-12-01T03:59:05;34.05;;;11.88;;
10092;SDS011;5085;48.092;11.484;2022-12-01T04:01:33;26.38;;;10.52;;
10092;SDS011;5085;48.092;11.484;2022-12-01T04:04:06;28.73;;;10.77;;
10092;SDS011;5085;48.092;11.484;2022-12-01T04:06:34;33.97;;;13.65;;
10092;SDS011;5085;48.092;11.484;2022-12-01T04:09:00;37.63;;;12.55;;
10092;SDS011;5085;48.092;11.484;2022-12-01T04:11:26;29.52;;;10.60;;
10092;SDS011;5085;48.092;11.484;2022-12-01T04:14:11;35.83;;;12.15;;
10092;SDS011;5085;48.092;11.484;2022-12-01T04:16:37;32.70;;;11.73;;
10092;SDS011;5085;48.092;11.484;2022-12-01T04:19:03;31.98;;;10.45;;
10092;SDS011;5085;48.092;11.484;2022-12-01T04:21:29;33.85;;;11.88;;
10092;SDS011;5085;48.092;11.484;2022-12-01T04:23:55;28.63;;;11.10;;
10092;SDS011;5085;48.092;11.484;2022-12-01T04:26:28;27.77;;;9.80;;
10092;SDS011;5085;48.092;11.484;2022-12-01T04:28:57;27.23;;;12.00;;
10092;SDS011;5085;48.092;11.484;2022-12-01T04:31:27;24.85;;;9.38;;
10092;SDS011;5085;48.092;11.484;2022-12-01T04:33:54;37.70;;;11.48;;
10092;SDS011;5085;48.092;11.484;2022-12-01T04:36:21;27.67;;;11.25;;
10092;SDS011;5085;48.092;11.484;2022-12-01T04:38:48;30.88;;;11.80;;
10092;SDS011;5085;48.092;11.484;2022-12-01T04:41:14;27.70;;;11.80;;
10092;SDS011;5085;48.092;11.484;2022-12-01T04:43:40;35.95;;;11.73;;
10092;SDS011;5085;48.092;11.484;2022-12-01T04:46:06;32.90;;;11.35;;
10092;SDS011;5085;48.092;11.484;2022-12-01T04:48:34;32.08;;;11.90;;
10092;SDS011;5085;48.092;11.484;2022-12-01T04:51:00;33.05;;;12.07;;
10092;SDS011;5085;48.092;11.484;2022-12-01T04:53:27;33.80;;;10.98;;
10092;SDS011;5085;48.092;11.484;2022-12-01T04:55:53;28.23;;;12.93;;
10092;SDS011;5085;48.092;11.484;2022-12-01T04:58:19;28.70;;;11.38;;
10092;SDS011;5085;48.092;11.484;2022-12-01T05:00:45;37.22;;;11.02;;
10092;SDS011;5085;48.092;11.484;2022-12-01T05:03:11;29.00;;;11.50;;
10092;SDS011;5085;48.092;11.484;2022-12-01T05:05:37;29.50;;;11.43;;
10092;SDS011;5085;48.092;11.484;2022-12-01T05:08:03;31.65;;;11.75;;
10092;SDS011;5085;48.092;11.484;2022-12-01T05:10:29;29.63;;;10.98;;
10092;SDS011;5085;48.092;11.484;2022-12-01T05:12:55;31.20;;;11.88;;
10092;SDS011;5085;48.092;11.484;2022-12-01T05:15:23;28.90;;;11.40;;
10092;SDS011;5085;48.092;11.484;2022-12-01T05:17:49;26.60;;;10.85;;
10092;SDS011;5085;48.092;11.484;2022-12-01T05:20:19;26.10;;;10.48;;
10092;SDS011;5085;48.092;11.484;2022-12-01T05:23:05;32.92;;;10.88;;
10092;SDS011;5085;48.092;11.484;2022-12-01T05:25:34;39.20;;;13.65;;
10092;SDS011;5085;48.092;11.484;2022-12-01T05:28:02;39.47;;;11.50;;
10092;SDS011;5085;48.092;11.484;2022-12-01T05:30:29;35.47;;;13.18;;
10092;SDS011;5085;48.092;11.484;2022-12-01T05:32:55;29.75;;;10.35;;
10092;SDS011;5085;48.092;11.484;2022-12-01T05:35:21;30.70;;;11.93;;
10092;SDS011;5085;48.092;11.484;2022-12-01T05:37:47;43.78;;;13.13;;
10092;SDS011;5085;48.092;11.484;2022-12-01T05:40:13;27.83;;;11.07;;
10092;SDS011;5085;48.092;11.484;2022-12-01T05:42:39;26.33;;;9.70;;
10092;SDS011;5085;48.092;11.484;2022-12-01T05:45:05;25.05;;;10.13;;
10092;SDS011;5085;48.092;11.484;2022-12-01T05:47:32;29.50;;;11.73;;
10092;SDS011;5085;48.092;11.484;2022-12-01T05:49:58;28.75;;;11.30;;
10092;SDS011;5085;48.092;11.484;2022-12-01T05:52:24;22.92;;;8.85;;
10092;SDS011;5085;48.092;11.484;2022-12-01T05:54:50;26.90;;;10.13;;
10092;SDS011;5085;48.092;11.484;2022-12-01T05:57:16;23.90;;;10.60;;
10092;SDS011;5085;48.092;11.484;2022-12-01T05:59:42;28.88;;;10.73;;
10092;SDS011;5085;48.092;11.484;2022-12-01T06:02:08;28.58;;;10.55;;
10092;SDS011;5085;48.092;11.484;2022-12-01T06:04:34;34.33;;;10.95;;
10092;SDS011;5085;48.092;11.484;2022-12-01T06:07:00;24.70;;;9.15;;
10092;SDS011;5085;48.092;11.484;2022-12-01T06:09:26;25.67;;;10.90;;
10092;SDS011;5085;48.092;11.484;2022-12-01T06:11:52;29.75;;;11.15;;
10092;SDS011;5085;48.092;11.484;2022-12-01T06:14:18;29.35;;;11.13;;
10092;SDS011;5085;48.092;11.484;2022-12-01T06:16:44;29.85;;;11.23;;
10092;SDS011;5085;48.092;11.484;2022-12-01T06:19:10;31.60;;;10.45;;
10092;SDS011;5085;48.092;11.484;2022-12-01T06:21:36;25.40;;;9.48;;
10092;SDS011;5085;48.092;11.484;2022-12-01T06:24:02;28.05;;;11.32;;
10092;SDS011;5085;48.092;11.484;2022-12-01T06:26:28;23.58;;;10.50;;
10092;SDS011;5085;48.092;11.484;2022-12-01T06:28:55;32.92;;;9.98;;
10092;SDS011;5085;48.092;11.484;2022-12-01T06:31:21;26.15;;;10.95;;
10092;SDS011;5085;48.092;11.484;2022-12-01T06:33:47;29.67;;;10.18;;
10092;SDS011;5085;48.092;11.484;2022-12-01T06:36:13;28.75;;;11.85;;
10092;SDS011;5085;48.092;11.484;2022-12-01T06:38:39;24.63;;;10.02;;
10092;SDS011;5085;48.092;11.484;2022-12-01T06:41:05;21.63;;;9.40;;
10092;SDS011;5085;48.092;11.484;2022-12-01T06:43:31;25.52;;;9.68;;
10092;SDS011;5085;48.092;11.484;2022-12-01T06:46:01;27.60;;;10.45;;
10092;SDS011;5085;48.092;11.484;2022-12-01T06:48:28;26.40;;;10.55;;
10092;SDS011;5085;48.092;11.484;2022-12-01T06:50:58;26.60;;;10.18;;
10092;SDS011;5085;48.092;11.484;2022-12-01T06:53:25;26.85;;;10.75;;
10092;SDS011;5085;48.092;11.484;2022-12-01T06:55:53;24.35;;;10.85;;
10092;SDS011;5085;48.092;11.484;2022-12-01T06:58:19;25.42;;;9.90;;
10092;SDS011;5085;48.092;11.484;2022-12-01T07:00:45;32.35;;;11.13;;
10092;SDS011;5085;48.092;11.484;2022-12-01T07:03:11;32.40;;;11.13;;
10092;SDS011;5085;48.092;11.484;2022-12-01T07:05:37;29.33;;;10.10;;
10092;SDS011;5085;48.092;11.484;2022-12-01T07:08:03;24.05;;;9.30;;
10092;SDS011;5085;48.092;11.484;2022-12-01T07:10:31;30.75;;;10.30;;
10092;SDS011;5085;48.092;11.484;2022-12-01T07:12:57;28.25;;;9.45;;
10092;SDS011;5085;48.092;11.484;2022-12-01T07:15:23;23.65;;;10.23;;
10092;SDS011;5085;48.092;11.484;2022-12-01T07:17:49;28.10;;;10.05;;
10092;SDS011;5085;48.092;11.484;2022-12-01T07:20:15;23.33;;;9.07;;
10092;SDS011;5085;48.092;11.484;2022-12-01T07:22:41;31.50;;;9.98;;
10092;SDS011;5085;48.092;11.484;2022-12-01T07:25:10;30.02;;;10.88;;
10092;SDS011;5085;48.092;11.484;2022-12-01T07:27:36;33.80;;;11.50;;
10092;SDS011;5085;48.092;11.484;2022-12-01T07:30:02;30.35;;;9.45;;
10092;SDS011;5085;48.092;11.484;2022-12-01T07:32:28;24.88;;;9.68;;
10092;SDS011;5085;48.092;11.484;2022-12-01T07:34:54;30.73;;;9.18;;
10092;SDS011;5085;48.092;11.484;2022-12-01T07:37:20;25.30;;;9.52;;
10092;SDS011;5085;48.092;11.484;2022-12-01T07:39:46;29.08;;;11.20;;
10092;SDS011;5085;48.092;11.484;2022-12-01T07:42:12;24.30;;;9.77;;
10092;SDS011;5085;48.092;11.484;2022-12-01T07:44:38;22.85;;;9.55;;
10092;SDS011;5085;48.092;11.484;2022-12-01T07:47:04;29.02;;;10.80;;
10092;SDS011;5085;48.092;11.484;2022-12-01T07:49:30;29.90;;;9.35;;
10092;SDS011;5085;48.092;11.484;2022-12-01T07:51:56;27.38;;;9.85;;
10092;SDS011;5085;48.092;11.484;2022-12-01T07:54:22;23.75;;;9.57;;
10092;SDS011;5085;48.092;11.484;2022-12-01T07:56:50;25.40;;;9.23;;
10092;SDS011;5085;48.092;11.484;2022-12-01T07:59:16;24.48;;;9.18;;
10092;SDS011;5085;48.092;11.484;2022-12-01T08:01:42;22.75;;;8.77;;
10092;SDS011;5085;48.092;11.484;2022-12-01T08:04:09;25.35;;;9.05;;
10092;SDS011;5085;48.092;11.484;2022-12-01T08:06:35;23.48;;;9.00;;
10092;SDS011;5085;48.092;11.484;2022-12-01T08:09:01;30.70;;;10.27;;
10092;SDS011;5085;48.092;11.484;2022-12-01T08:11:27;22.45;;;9.65;;
10092;SDS011;5085;48.092;11.484;2022-12-01T08:13:56;29.02;;;9.77;;
10092;SDS011;5085;48.092;11.484;2022-12-01T08:16:22;28.60;;;8.95;;
10092;SDS011;5085;48.092;11.484;2022-12-01T08:18:49;25.88;;;9.35;;
10092;SDS011;5085;48.092;11.484;2022-12-01T08:21:16;17.13;;;7.93;;
10092;SDS011;5085;48.092;11.484;2022-12-01T08:23:44;21.77;;;9.80;;
10092;SDS011;5085;48.092;11.484;2022-12-01T08:26:11;23.75;;;9.23;;
10092;SDS011;5085;48.092;11.484;2022-12-01T08:28:39;24.55;;;9.35;;
10092;SDS011;5085;48.092;11.484;2022-12-01T08:33:46;23.05;;;9.05;;
10092;SDS011;5085;48.092;11.484;2022-12-01T08:36:12;18.80;;;8.05;;
10092;SDS011;5085;48.092;11.484;2022-12-01T08:38:41;22.38;;;8.40;;
10092;SDS011;5085;48.092;11.484;2022-12-01T08:41:08;22.27;;;9.38;;
10092;SDS011;5085;48.092;11.484;2022-12-01T08:43:35;20.25;;;7.80;;
10092;SDS011;5085;48.092;11.484;2022-12-01T08:46:06;22.45;;;8.93;;
10092;SDS011;5085;48.092;11.484;2022-12-01T08:48:32;23.08;;;8.80;;
10092;SDS011;5085;48.092;11.484;2022-12-01T08:51:03;31.15;;;9.65;;
10092;SDS011;5085;48.092;11.484;2022-12-01T08:53:31;28.58;;;9.75;;
10092;SDS011;5085;48.092;11.484;2022-12-01T08:55:58;19.63;;;8.88;;
10092;SDS011;5085;48.092;11.484;2022-12-01T08:58:26;25.40;;;10.40;;
10092;SDS011;5085;48.092;11.484;2022-12-01T09:00:52;23.65;;;9.60;;
10092;SDS011;5085;48.092;11.484;2022-12-01T09:03:24;25.00;;;9.20;;
10092;SDS011;5085;48.092;11.484;2022-12-01T09:05:50;26.05;;;9.30;;
10092;SDS011;5085;48.092;11.484;2022-12-01T09:08:16;25.77;;;11.63;;
10092;SDS011;5085;48.092;11.484;2022-12-01T09:10:58;31.38;;;10.60;;
10092;SDS011;5085;48.092;11.484;2022-12-01T09:13:26;25.02;;;10.30;;
10092;SDS011;5085;48.092;11.484;2022-12-01T09:15:54;23.88;;;9.60;;
10092;SDS011;5085;48.092;11.484;2022-12-01T09:18:24;22.20;;;9.50;;
10092;SDS011;5085;48.092;11.484;2022-12-01T09:20:50;27.95;;;9.00;;
10092;SDS011;5085;48.092;11.484;2022-12-01T09:23:16;27.00;;;10.55;;
10092;SDS011;5085;48.092;11.484;2022-12-01T09:25:42;28.65;;;10.55;;
10092;SDS011;5085;48.092;11.484;2022-12-01T09:28:08;31.80;;;11.27;;
10092;SDS011;5085;48.092;11.484;2022-12-01T09:30:34;23.27;;;8.82;;
10092;SDS011;5085;48.092;11.484;2022-12-01T09:33:00;25.73;;;9.82;;
10092;SDS011;5085;48.092;11.484;2022-12-01T09:35:26;31.92;;;11.25;;
10092;SDS011;5085;48.092;11.484;2022-12-01T09:37:54;29.55;;;10.55;;
10092;SDS011;5085;48.092;11.484;2022-12-01T09:40:22;24.15;;;9.60;;
10092;SDS011;5085;48.092;11.484;2022-12-01T09:42:50;21.27;;;10.13;;
10092;SDS011;5085;48.092;11.484;2022-12-01T09:45:19;29.77;;;10.50;;
10092;SDS011;5085;48.092;11.484;2022-12-01T09:48:01;26.20;;;9.88;;
10092;SDS011;5085;48.092;11.484;2022-12-01T09:50:29;23.23;;;9.32;;
10092;SDS011;5085;48.092;11.484;2022-12-01T09:52:57;26.35;;;9.57;;
10092;SDS011;5085;48.092;11.484;2022-12-01T09:55:27;26.70;;;9.02;;
10092;SDS011;5085;48.092;11.484;2022-12-01T09:57:56;27.88;;;9.68;;
10092;SDS011;5085;48.092;11.484;2022-12-01T10:00:25;20.10;;;9.45;;
10092;SDS011;5085;48.092;11.484;2022-12-01T10:03:20;22.13;;;9.02;;
10092;SDS011;5085;48.092;11.484;2022-12-01T10:06:01;25.38;;;9.02;;
10092;SDS011;5085;48.092;11.484;2022-12-01T10:08:33;28.88;;;9.93;;
10092;SDS011;5085;48.092;11.484;2022-12-01T10:14:02;22.67;;;8.73;;
10092;SDS011;5085;48.092;11.484;2022-12-01T10:16:31;21.60;;;8.48;;
10092;SDS011;5085;48.092;11.484;2022-12-01T10:19:07;24.35;;;9.93;;
10092;SDS011;5085;48.092;11.484;2022-12-01T10:30:06;26.30;;;8.27;;
10092;SDS011;5085;48.092;11.484;2022-12-01T10:35:25;22.95;;;7.40;;
10092;SDS011;5085;48.092;11.484;2022-12-01T10:38:00;23.55;;;9.13;;
10092;SDS011;5085;48.092;11.484;2022-12-01T10:40:28;20.00;;;8.48;;
10092;SDS011;5085;48.092;11.484;2022-12-01T10:42:59;23.42;;;9.57;;
10092;SDS011;5085;48.092;11.484;2022-12-01T10:45:26;27.70;;;10.07;;
10092;SDS011;5085;48.092;11.484;2022-12-01T10:48:11;20.13;;;7.88;;
10092;SDS011;5085;48.092;11.484;2022-12-01T10:50:43;22.98;;;8.98;;
10092;SDS011;5085;48.092;11.484;2022-12-01T10:55:51;23.60;;;8.82;;
10092;SDS011;5085;48.092;11.484;2022-12-01T10:58:46;23.63;;;9.20;;
10092;SDS011;5085;48.092;11.484;2022-12-01T11:01:21;17.10;;;7.90;;
10092;SDS011;5085;48.092;11.484;2022-12-01T11:03:56;21.00;;;8.05;;
10092;SDS011;5085;48.092;11.484;2022-12-01T11:06:27;24.95;;;8.45;;
10092;SDS011;5085;48.092;11.484;2022-12-01T11:08:56;22.08;;;9.10;;
10092;SDS011;5085;48.092;11.484;2022-12-01T11:11:27;22.45;;;8.73;;
10092;SDS011;5085;48.092;11.484;2022-12-01T11:14:03;22.55;;;8.13;;
10092;SDS011;5085;48.092;11.484;2022-12-01T11:19:15;22.95;;;9.63;;
10092;SDS011;5085;48.092;11.484;2022-12-01T11:21:49;21.40;;;9.25;;
10092;SDS011;5085;48.092;11.484;2022-12-01T11:24:39;17.27;;;8.20;;
10092;SDS011;5085;48.092;11.484;2022-12-01T11:27:20;20.88;;;9.00;;
10092;SDS011;5085;48.092;11.484;2022-12-01T11:29:48;22.10;;;9.52;;
10092;SDS011;5085;48.092;11.484;2022-12-01T11:32:20;20.92;;;8.40;;
10092;SDS011;5085;48.092;11.484;2022-12-01T11:34:51;18.02;;;7.30;;
10092;SDS011;5085;48.092;11.484;2022-12-01T11:37:37;19.55;;;8.40;;
10092;SDS011;5085;48.092;11.484;2022-12-01T11:40:13;20.38;;;7.95;;
10092;SDS011;5085;48.092;11.484;2022-12-01T11:42:41;19.63;;;7.85;;
10092;SDS011;5085;48.092;11.484;2022-12-01T11:48:02;18.77;;;7.97;;
10092;SDS011;5085;48.092;11.484;2022-12-01T11:50:30;26.75;;;8.90;;
10092;SDS011;5085;48.092;11.484;2022-12-01T11:52:59;22.10;;;7.88;;
10092;SDS011;5085;48.092;11.484;2022-12-01T11:55:26;16.75;;;7.45;;
10092;SDS011;5085;48.092;11.484;2022-12-01T11:57:55;19.38;;;7.53;;
10092;SDS011;5085;48.092;11.484;2022-12-01T12:00:25;21.88;;;8.55;;
10092;SDS011;5085;48.092;11.484;2022-12-01T12:17:11;20.02;;;7.38;;
10092;SDS011;5085;48.092;11.484;2022-12-01T12:19:47;17.05;;;7.25;;
10092;SDS011;5085;48.092;11.484;2022-12-01T12:22:30;16.55;;;7.53;;
10092;SDS011;5085;48.092;11.484;2022-12-01T12:25:23;22.23;;;9.05;;
10092;SDS011;5085;48.092;11.484;2022-12-01T12:33:40;23.25;;;8.70;;
10092;SDS011;5085;48.092;11.484;2022-12-01T12:41:55;17.52;;;7.22;;
10092;SDS011;5085;48.092;11.484;2022-12-01T12:44:41;20.60;;;8.00;;
10092;SDS011;5085;48.092;11.484;2022-12-01T12:47:36;19.98;;;7.53;;
10092;SDS011;5085;48.092;11.484;2022-12-01T12:52:50;15.63;;;6.47;;
10092;SDS011;5085;48.092;11.484;2022-12-01T12:55:40;19.27;;;7.53;;
10092;SDS011;5085;48.092;11.484;2022-12-01T12:58:12;22.05;;;8.65;;
10092;SDS011;5085;48.092;11.484;2022-12-01T13:00:45;19.17;;;8.10;;
10092;SDS011;5085;48.092;11.484;2022-12-01T13:03:45;23.13;;;9.02;;
10092;SDS011;5085;48.092;11.484;2022-12-01T13:06:15;17.88;;;7.40;;
10092;SDS011;5085;48.092;11.484;2022-12-01T13:08:49;19.75;;;6.28;;
10092;SDS011;5085;48.092;11.484;2022-12-01T13:11:28;18.27;;;7.85;;
10092;SDS011;5085;48.092;11.484;2022-12-01T13:14:00;21.52;;;8.18;;
10092;SDS011;5085;48.092;11.484;2022-12-01T13:16:40;17.70;;;8.15;;
10092;SDS011;5085;48.092;11.484;2022-12-01T13:19:12;15.38;;;6.97;;
10092;SDS011;5085;48.092;11.484;2022-12-01T13:24:09;14.57;;;6.38;;
10092;SDS011;5085;48.092;11.484;2022-12-01T13:26:43;17.83;;;6.78;;
10092;SDS011;5085;48.092;11.484;2022-12-01T13:29:13;21.70;;;7.20;;
10092;SDS011;5085;48.092;11.484;2022-12-01T13:31:47;18.05;;;7.30;;
10092;SDS011;5085;48.092;11.484;2022-12-01T13:34:17;20.55;;;7.85;;
10092;SDS011;5085;48.092;11.484;2022-12-01T13:36:48;18.77;;;8.52;;
10092;SDS011;5085;48.092;11.484;2022-12-01T13:39:19;22.95;;;9.05;;
10092;SDS011;5085;48.092;11.484;2022-12-01T13:41:54;15.93;;;7.00;;
10092;SDS011;5085;48.092;11.484;2022-12-01T13:44:26;15.73;;;7.22;;
10092;SDS011;5085;48.092;11.484;2022-12-01T13:47:01;18.80;;;7.63;;
10092;SDS011;5085;48.092;11.484;2022-12-01T13:49:46;24.88;;;9.05;;
10092;SDS011;5085;48.092;11.484;2022-12-01T14:00:29;19.77;;;7.90;;
10092;SDS011;5085;48.092;11.484;2022-12-01T14:10:51;17.67;;;7.50;;
10092;SDS011;5085;48.092;11.484;2022-12-01T14:13:17;21.17;;;8.30;;
10092;SDS011;5085;48.092;11.484;2022-12-01T14:15:49;17.65;;;8.13;;
10092;SDS011;5085;48.092;11.484;2022-12-01T14:18:30;18.75;;;7.45;;
10092;SDS011;5085;48.092;11.484;2022-12-01T14:21:00;20.10;;;7.72;;
10092;SDS011;5085;48.092;11.484;2022-12-01T14:23:30;17.13;;;7.25;;
10092;SDS011;5085;48.092;11.484;2022-12-01T14:31:23;17.02;;;6.88;;
10092;SDS011;5085;48.092;11.484;2022-12-01T14:34:11;19.85;;;6.85;;
10092;SDS011;5085;48.092;11.484;2022-12-01T14:36:43;15.93;;;6.97;;
10092;SDS011;5085;48.092;11.484;2022-12-01T14:39:49;16.55;;;7.22;;
10092;SDS011;5085;48.092;11.484;2022-12-01T14:45:12;20.48;;;8.65;;
10092;SDS011;5085;48.092;11.484;2022-12-01T14:47:43;22.42;;;8.75;;
10092;SDS011;5085;48.092;11.484;2022-12-01T14:50:17;22.38;;;8.40;;
10092;SDS011;5085;48.092;11.484;2022-12-01T14:52:55;22.83;;;7.93;;
10092;SDS011;5085;48.092;11.484;2022-12-01T14:55:35;20.05;;;7.32;;
10092;SDS011;5085;48.092;11.484;2022-12-01T14:58:10;25.58;;;8.52;;
10092;SDS011;5085;48.092;11.484;2022-12-01T15:03:18;15.82;;;7.88;;
10092;SDS011;5085;48.092;11.484;2022-12-01T15:05:44;16.80;;;7.50;;
10092;SDS011;5085;48.092;11.484;2022-12-01T15:08:15;17.83;;;7.60;;
10092;SDS011;5085;48.092;11.484;2022-12-01T15:10:52;19.23;;;7.85;;
10092;SDS011;5085;48.092;11.484;2022-12-01T15:13:43;16.88;;;7.03;;
10092;SDS011;5085;48.092;11.484;2022-12-01T15:16:19;18.33;;;8.13;;
10092;SDS011;5085;48.092;11.484;2022-12-01T15:18:47;18.95;;;7.28;;
10092;SDS011;5085;48.092;11.484;2022-12-01T15:21:23;20.35;;;8.50;;
10092;SDS011;5085;48.092;11.484;2022-12-01T15:23:55;19.70;;;8.15;;
10092;SDS011;5085;48.092;11.484;2022-12-01T15:26:25;19.38;;;7.00;;
10092;SDS011;5085;48.092;11.484;2022-12-01T15:31:41;19.67;;;7.35;;
10092;SDS011;5085;48.092;11.484;2022-12-01T15:34:22;18.00;;;7.15;;
10092;SDS011;5085;48.092;11.484;2022-12-01T15:36:51;14.25;;;6.78;;
10092;SDS011;5085;48.092;11.484;2022-12-01T15:39:19;20.58;;;7.85;;
10092;SDS011;5085;48.092;11.484;2022-12-01T15:41:50;21.42;;;8.85;;
10092;SDS011;5085;48.092;11.484;2022-12-01T15:44:20;18.25;;;8.07;;
10092;SDS011;5085;48.092;11.484;2022-12-01T15:46:51;23.20;;;9.02;;
10092;SDS011;5085;48.092;11.484;2022-12-01T15:49:18;20.85;;;8.52;;
10092;SDS011;5085;48.092;11.484;2022-12-01T15:51:52;18.55;;;7.97;;
10092;SDS011;5085;48.092;11.484;2022-12-01T15:54:21;24.65;;;8.57;;
10092;SDS011;5085;48.092;11.484;2022-12-01T15:56:52;22.98;;;8.13;;
10092;SDS011;5085;48.092;11.484;2022-12-01T16:02:26;18.80;;;7.47;;
10092;SDS011;5085;48.092;11.484;2022-12-01T16:05:02;16.45;;;7.78;;
10092;SDS011;5085;48.092;11.484;2022-12-01T16:07:39;22.48;;;8.55;;
10092;SDS011;5085;48.092;11.484;2022-12-01T16:10:05;16.95;;;8.30;;
10092;SDS011;5085;48.092;11.484;2022-12-01T16:12:34;19.42;;;7.78;;
10092;SDS011;5085;48.092;11.484;2022-12-01T16:17:42;21.00;;;7.55;;
10092;SDS011;5085;48.092;11.484;2022-12-01T16:20:14;20.15;;;7.63;;
10092;SDS011;5085;48.092;11.484;2022-12-01T16:22:46;19.13;;;7.97;;
10092;SDS011;5085;48.092;11.484;2022-12-01T16:25:20;20.40;;;8.30;;
10092;SDS011;5085;48.092;11.484;2022-12-01T16:30:26;18.90;;;7.47;;
10092;SDS011;5085;48.092;11.484;2022-12-01T16:33:04;17.60;;;6.72;;
10092;SDS011;5085;48.092;11.484;2022-12-01T16:35:38;23.77;;;9.45;;
10092;SDS011;5085;48.092;11.484;2022-12-01T16:38:12;18.27;;;7.40;;
10092;SDS011;5085;48.092;11.484;2022-12-01T16:40:41;26.27;;;7.68;;
10092;SDS011;5085;48.092;11.484;2022-12-01T16:43:10;19.88;;;7.05;;
10092;SDS011;5085;48.092;11.484;2022-12-01T16:45:38;19.67;;;8.30;;
10092;SDS011;5085;48.092;11.484;2022-12-01T16:48:05;22.88;;;7.95;;
10092;SDS011;5085;48.092;11.484;2022-12-01T16:50:31;18.95;;;7.70;;
10092;SDS011;5085;48.092;11.484;2022-12-01T16:52:57;18.80;;;8.07;;
10092;SDS011;5085;48.092;11.484;2022-12-01T16:58:23;21.88;;;9.75;;
10092;SDS011;5085;48.092;11.484;2022-12-01T17:00:50;17.80;;;7.72;;
10092;SDS011;5085;48.092;11.484;2022-12-01T17:03:23;22.02;;;8.57;;
10092;SDS011;5085;48.092;11.484;2022-12-01T17:05:51;20.45;;;7.43;;